createdAt,value
2022-12-07T00:01:39.822Z,6.90
2022-12-07T00:04:07.998Z,6.91
2022-12-07T00:06:39.926Z,6.91
2022-12-07T00:09:08.037Z,6.99
2022-12-07T00:11:35.089Z,6.94
2022-12-07T00:14:03.739Z,6.95
2022-12-07T00:16:31.816Z,6.90
2022-12-07T00:18:58.951Z,6.93
2022-12-07T00:21:27.990Z,6.92
2022-12-07T00:23:55.149Z,6.97
2022-12-07T00:26:28.973Z,6.90
2022-12-07T00:28:57.019Z,6.88
2022-12-07T00:31:26.494Z,6.92
2022-12-07T00:33:53.344Z,6.96
2022-12-07T00:36:26.270Z,6.92
2022-12-07T00:38:53.315Z,6.92
2022-12-07T00:41:22.098Z,6.96
2022-12-07T00:43:49.333Z,6.98
2022-12-07T00:46:16.688Z,6.93
2022-12-07T00:48:43.496Z,6.90
2022-12-07T00:51:14.359Z,6.92
2022-12-07T00:53:42.076Z,6.93
2022-12-07T00:56:13.919Z,6.95
2022-12-07T00:58:40.668Z,6.88
2022-12-07T01:01:08.350Z,6.85
2022-12-07T01:03:35.352Z,6.86
2022-12-07T01:06:02.447Z,6.95
2022-12-07T01:08:29.353Z,7.05
2022-12-07T01:11:07.227Z,6.97
2022-12-07T01:13:35.061Z,6.95
2022-12-07T01:16:03.719Z,6.91
2022-12-07T01:18:31.218Z,6.90
2022-12-07T01:21:04.199Z,6.91
2022-12-07T01:23:31.261Z,6.96
2022-12-07T01:25:58.855Z,6.90
2022-12-07T01:28:25.812Z,6.95
2022-12-07T01:31:03.675Z,6.97
2022-12-07T01:33:32.515Z,7.02
2022-12-07T01:36:14.819Z,7.00
2022-12-07T01:38:41.651Z,7.04
2022-12-07T01:41:08.747Z,7.03
2022-12-07T01:43:35.471Z,7.00
2022-12-07T01:46:03.832Z,6.98
2022-12-07T01:48:41.463Z,6.95
2022-12-07T01:51:12.684Z,6.97
2022-12-07T01:53:41.116Z,6.93
2022-12-07T01:56:09.016Z,6.92
2022-12-07T01:58:35.752Z,6.95
2022-12-07T02:01:02.897Z,6.93
2022-12-07T02:03:35.794Z,6.95
2022-12-07T02:06:02.883Z,6.92
2022-12-07T02:08:29.596Z,6.96
2022-12-07T02:10:56.655Z,6.93
2022-12-07T02:13:24.891Z,6.92
2022-12-07T02:16:25.719Z,6.93
2022-12-07T02:19:17.341Z,6.99
2022-12-07T02:21:49.619Z,6.93
2022-12-07T02:24:40.581Z,6.94
2022-12-07T02:27:24.933Z,6.97
2022-12-07T02:30:18.986Z,6.96
2022-12-07T02:32:55.047Z,6.99
2022-12-07T02:35:54.949Z,6.98
2022-12-07T02:38:40.759Z,6.97
2022-12-07T02:41:16.334Z,6.97
2022-12-07T02:43:46.286Z,7.02
2022-12-07T02:46:16.289Z,7.00
2022-12-07T02:48:43.836Z,7.00
2022-12-07T02:51:10.571Z,7.02
2022-12-07T02:53:43.962Z,7.03
2022-12-07T02:56:22.878Z,6.96
2022-12-07T02:59:05.749Z,7.01
2022-12-07T03:02:02.465Z,6.99
2022-12-07T03:04:49.490Z,7.00
2022-12-07T03:07:44.437Z,7.08
2022-12-07T03:10:16.043Z,7.05
2022-12-07T03:12:57.414Z,7.03
2022-12-07T03:15:30.935Z,7.00
2022-12-07T03:17:57.874Z,7.05
2022-12-07T03:20:24.998Z,7.04
2022-12-07T03:22:51.729Z,7.02
2022-12-07T03:25:18.842Z,7.05
2022-12-07T03:27:57.041Z,7.04
2022-12-07T03:30:25.557Z,7.04
2022-12-07T03:33:00.042Z,7.03
2022-12-07T03:35:34.661Z,7.06
2022-12-07T03:38:24.550Z,7.01
2022-12-07T03:41:00.645Z,7.00
2022-12-07T03:43:29.941Z,7.03
2022-12-07T03:46:20.493Z,7.02
2022-12-07T03:49:09.241Z,7.00
2022-12-07T03:51:54.605Z,7.03
2022-12-07T03:54:27.417Z,7.03
2022-12-07T03:56:54.473Z,7.01
2022-12-07T03:59:21.349Z,7.01
2022-12-07T04:01:56.238Z,7.01
2022-12-07T04:04:24.288Z,7.02
2022-12-07T04:06:51.580Z,7.02
2022-12-07T04:09:18.539Z,7.04
2022-12-07T04:11:45.554Z,6.99
2022-12-07T04:14:21.351Z,7.05
2022-12-07T04:16:58.995Z,7.01
2022-12-07T04:19:27.409Z,7.01
2022-12-07T04:21:55.105Z,7.03
2022-12-07T04:24:21.848Z,7.03
2022-12-07T04:26:48.937Z,7.04
2022-12-07T04:29:16.160Z,7.02
2022-12-07T04:31:43.446Z,6.98
2022-12-07T04:34:10.440Z,7.02
2022-12-07T04:36:37.584Z,7.00
2022-12-07T04:39:04.884Z,6.96
2022-12-07T04:41:31.912Z,6.97
2022-12-07T04:44:02.797Z,6.96
2022-12-07T04:46:30.812Z,6.96
2022-12-07T04:48:57.599Z,6.97
2022-12-07T04:51:26.343Z,6.97
2022-12-07T04:53:53.168Z,6.93
2022-12-07T04:56:20.291Z,6.96
2022-12-07T04:58:47.749Z,6.98
2022-12-07T05:01:17.225Z,6.97
2022-12-07T05:03:44.108Z,6.97
2022-12-07T05:06:13.565Z,6.92
2022-12-07T05:08:41.047Z,6.97
2022-12-07T05:11:08.451Z,6.97
2022-12-07T05:13:35.524Z,6.98
2022-12-07T05:16:02.819Z,6.96
2022-12-07T05:18:29.836Z,6.96
2022-12-07T05:20:57.000Z,6.90
2022-12-07T05:23:23.747Z,6.99
2022-12-07T05:25:51.138Z,6.90
2022-12-07T05:28:17.876Z,6.95
2022-12-07T05:30:44.888Z,6.94
2022-12-07T05:33:11.636Z,6.95
2022-12-07T05:35:38.906Z,6.88
2022-12-07T05:38:05.667Z,7.03
2022-12-07T05:40:32.767Z,7.10
2022-12-07T05:43:04.278Z,7.11
2022-12-07T05:45:31.903Z,7.09
2022-12-07T05:47:58.728Z,7.00
2022-12-07T05:50:25.895Z,6.96
2022-12-07T05:52:52.608Z,6.98
2022-12-07T05:55:19.618Z,6.99
2022-12-07T05:58:06.483Z,6.93
2022-12-07T06:00:33.719Z,6.95
2022-12-07T06:03:00.514Z,6.96
2022-12-07T06:05:27.707Z,6.93
2022-12-07T06:07:54.482Z,6.93
2022-12-07T06:10:21.544Z,6.96
2022-12-07T06:12:48.338Z,6.93
2022-12-07T06:15:15.484Z,6.92
2022-12-07T06:17:42.295Z,6.92
2022-12-07T06:20:09.562Z,6.85
2022-12-07T06:22:36.264Z,6.89
2022-12-07T06:25:08.516Z,6.88
2022-12-07T06:27:36.442Z,6.91
2022-12-07T06:30:07.503Z,6.93
2022-12-07T06:32:34.852Z,6.91
2022-12-07T06:35:02.109Z,6.93
2022-12-07T06:37:28.851Z,6.93
2022-12-07T06:39:55.889Z,6.90
2022-12-07T06:42:22.719Z,6.93
2022-12-07T06:44:50.082Z,6.87
2022-12-07T06:47:40.630Z,6.87
2022-12-07T06:50:04.591Z,6.86
2022-12-07T06:52:31.642Z,6.83
2022-12-07T06:54:59.711Z,6.86
2022-12-07T06:57:26.879Z,6.82
2022-12-07T06:59:53.885Z,6.83
2022-12-07T07:02:20.755Z,6.84
2022-12-07T07:04:47.831Z,6.85
2022-12-07T07:07:14.553Z,6.85
2022-12-07T07:09:42.417Z,6.86
2022-12-07T07:12:09.142Z,6.85
2022-12-07T07:14:36.794Z,6.87
2022-12-07T07:17:03.557Z,6.83
2022-12-07T07:19:30.541Z,6.81
2022-12-07T07:21:57.270Z,6.80
2022-12-07T07:24:24.267Z,6.76
2022-12-07T07:26:51.049Z,6.82
2022-12-07T07:29:18.088Z,6.80
2022-12-07T07:31:44.823Z,6.79
2022-12-07T07:34:11.840Z,6.82
2022-12-07T07:36:38.789Z,6.85
2022-12-07T07:39:06.068Z,6.80
2022-12-07T07:41:32.884Z,6.83
2022-12-07T07:43:59.914Z,6.83
2022-12-07T07:46:26.758Z,6.76
2022-12-07T07:48:53.822Z,6.82
2022-12-07T07:51:20.579Z,6.82
2022-12-07T07:53:47.626Z,6.83
2022-12-07T07:56:14.383Z,6.84
2022-12-07T07:58:41.577Z,6.86
2022-12-07T08:01:08.523Z,6.84
2022-12-07T08:03:35.657Z,6.90
2022-12-07T08:06:05.801Z,6.87
2022-12-07T08:08:33.066Z,6.84
2022-12-07T08:11:02.391Z,6.84
2022-12-07T08:13:31.592Z,6.82
2022-12-07T08:15:58.825Z,6.83
2022-12-07T08:18:25.909Z,6.82
2022-12-07T08:20:52.720Z,6.85
2022-12-07T08:23:19.716Z,6.95
2022-12-07T08:25:46.392Z,6.99
2022-12-07T08:28:13.669Z,6.95
2022-12-07T08:30:40.431Z,6.93
2022-12-07T08:33:07.540Z,6.91
2022-12-07T08:35:35.210Z,6.93
2022-12-07T08:38:03.289Z,6.94
2022-12-07T08:40:30.462Z,7.00
2022-12-07T08:42:57.497Z,6.98
2022-12-07T08:45:27.381Z,6.88
2022-12-07T08:48:07.450Z,6.95
2022-12-07T08:50:34.969Z,6.91
2022-12-07T08:53:02.020Z,6.96
2022-12-07T08:55:28.867Z,6.96
2022-12-07T08:57:55.920Z,7.06
2022-12-07T09:00:22.863Z,7.05
2022-12-07T09:02:50.001Z,7.09
2022-12-07T09:05:17.342Z,6.98
2022-12-07T09:07:45.191Z,7.08
2022-12-07T09:10:12.130Z,7.11
2022-12-07T09:12:39.171Z,7.08
2022-12-07T09:15:06.294Z,7.14
2022-12-07T09:17:34.147Z,7.12
2022-12-07T09:20:02.362Z,7.11
2022-12-07T09:22:31.335Z,7.11
2022-12-07T09:24:59.083Z,7.13
2022-12-07T09:27:26.907Z,7.12
2022-12-07T09:29:53.787Z,7.14
2022-12-07T09:32:21.008Z,7.18
2022-12-07T09:34:47.882Z,7.15
2022-12-07T09:37:14.962Z,7.21
2022-12-07T09:39:47.925Z,7.19
2022-12-07T09:42:26.099Z,7.24
2022-12-07T09:44:52.930Z,7.29
2022-12-07T09:47:19.953Z,7.28
2022-12-07T09:49:46.725Z,7.24
2022-12-07T09:52:13.774Z,7.33
2022-12-07T09:54:42.757Z,7.34
2022-12-07T09:57:10.043Z,7.37
2022-12-07T09:59:36.963Z,7.39
2022-12-07T10:02:27.347Z,7.39
2022-12-07T10:04:54.152Z,7.39
2022-12-07T10:07:21.254Z,7.43
2022-12-07T10:09:48.027Z,7.41
2022-12-07T10:12:15.102Z,7.40
2022-12-07T10:15:12.910Z,7.49
2022-12-07T10:17:42.112Z,7.50
2022-12-07T10:20:25.978Z,7.43
2022-12-07T10:23:17.113Z,7.54
2022-12-07T10:25:44.053Z,7.51
2022-12-07T10:28:16.122Z,7.49
2022-12-07T10:31:16.391Z,7.52
2022-12-07T10:33:50.619Z,7.56
2022-12-07T10:36:36.763Z,7.61
2022-12-07T10:39:11.858Z,7.62
2022-12-07T10:42:00.731Z,7.60
2022-12-07T10:44:29.268Z,7.55
2022-12-07T10:47:09.133Z,7.57
2022-12-07T10:49:57.453Z,7.59
2022-12-07T10:52:30.281Z,7.54
2022-12-07T10:55:13.884Z,7.55
2022-12-07T10:58:28.970Z,7.58
2022-12-07T11:01:08.168Z,7.58
2022-12-07T11:03:51.853Z,7.57
2022-12-07T11:06:48.329Z,7.58
2022-12-07T11:09:51.877Z,7.57
2022-12-07T11:12:46.661Z,7.58
2022-12-07T11:15:24.271Z,7.56
2022-12-07T11:18:10.050Z,7.54
2022-12-07T11:20:53.537Z,7.57
2022-12-07T11:24:02.522Z,7.55
2022-12-07T11:27:06.739Z,7.62
2022-12-07T11:30:05.125Z,7.65
2022-12-07T11:33:05.865Z,7.68
2022-12-07T11:35:39.079Z,7.66
2022-12-07T11:38:32.416Z,7.65
2022-12-07T11:41:14.240Z,7.66
2022-12-07T11:43:50.446Z,7.66
2022-12-07T11:46:17.650Z,7.64
2022-12-07T11:49:00.353Z,7.62
2022-12-07T11:51:33.229Z,7.64
2022-12-07T11:54:25.016Z,7.69
2022-12-07T11:56:52.331Z,7.73
2022-12-07T11:59:30.975Z,7.78
2022-12-07T12:02:19.791Z,7.72
2022-12-07T12:04:56.984Z,7.75
2022-12-07T12:10:15.480Z,7.79
2022-12-07T12:15:57.356Z,7.85
2022-12-07T12:18:27.431Z,7.91
2022-12-07T12:21:13.540Z,7.88
2022-12-07T12:23:44.508Z,7.84
2022-12-07T12:26:20.301Z,7.93
2022-12-07T12:29:00.199Z,7.93
2022-12-07T12:31:40.585Z,7.94
2022-12-07T12:34:33.707Z,7.96
2022-12-07T12:37:00.545Z,7.95
2022-12-07T12:39:27.692Z,7.91
2022-12-07T12:41:55.687Z,7.90
2022-12-07T12:44:23.364Z,7.87
2022-12-07T12:46:58.529Z,7.87
2022-12-07T12:49:28.534Z,7.87
2022-12-07T12:52:04.341Z,7.93
2022-12-07T12:54:35.689Z,8.00
2022-12-07T12:57:27.997Z,7.95
2022-12-07T12:59:55.117Z,7.97
2022-12-07T13:02:30.790Z,8.05
2022-12-07T13:05:08.928Z,8.00
2022-12-07T13:07:48.268Z,8.02
2022-12-07T13:10:29.549Z,8.05
2022-12-07T13:13:20.771Z,8.06
2022-12-07T13:15:51.520Z,8.03
2022-12-07T13:18:30.996Z,7.99
2022-12-07T13:21:01.264Z,7.99
2022-12-07T13:23:46.947Z,7.97
2022-12-07T13:26:30.536Z,8.02
2022-12-07T13:29:21.127Z,7.99
2022-12-07T13:31:55.863Z,7.99
2022-12-07T13:34:38.950Z,7.99
2022-12-07T13:37:16.046Z,7.98
2022-12-07T13:39:48.467Z,7.98
2022-12-07T13:42:35.265Z,8.02
2022-12-07T13:45:22.331Z,8.03
2022-12-07T13:47:51.223Z,7.98
2022-12-07T13:50:32.060Z,7.96
2022-12-07T13:53:00.219Z,7.98
2022-12-07T13:55:27.362Z,8.00
2022-12-07T13:57:54.952Z,8.01
2022-12-07T14:00:30.867Z,8.03
2022-12-07T14:03:04.309Z,8.01
2022-12-07T14:05:32.327Z,8.01
2022-12-07T14:08:01.362Z,8.00
2022-12-07T14:10:31.806Z,8.01
2022-12-07T14:12:59.026Z,7.95
2022-12-07T14:15:35.509Z,7.96
2022-12-07T14:18:05.510Z,7.99
2022-12-07T14:20:39.892Z,7.94
2022-12-07T14:23:23.091Z,7.88
2022-12-07T14:25:51.838Z,7.90
2022-12-07T14:28:29.838Z,7.87
2022-12-07T14:30:56.711Z,7.88
2022-12-07T14:33:24.080Z,7.89
2022-12-07T14:35:50.793Z,7.84
2022-12-07T14:38:19.579Z,7.85
2022-12-07T14:40:46.387Z,7.86
2022-12-07T14:43:14.815Z,7.88
2022-12-07T14:45:41.771Z,7.86
2022-12-07T14:53:53.133Z,7.79
2022-12-07T14:56:24.269Z,7.80
2022-12-07T14:58:51.382Z,7.79
2022-12-07T15:01:18.198Z,7.73
2022-12-07T15:03:45.425Z,7.79
2022-12-07T15:06:15.753Z,7.72
2022-12-07T15:08:42.932Z,7.78
2022-12-07T15:11:14.381Z,7.77
2022-12-07T15:14:00.112Z,7.73
2022-12-07T15:16:26.921Z,7.80
2022-12-07T15:19:26.103Z,7.81
2022-12-07T15:21:41.985Z,7.76
2022-12-07T15:24:12.634Z,7.68
2022-12-07T15:26:39.806Z,7.69
2022-12-07T15:29:07.389Z,7.71
2022-12-07T15:34:21.522Z,7.72
2022-12-07T15:36:48.253Z,7.69
2022-12-07T15:39:15.658Z,7.67
2022-12-07T15:41:42.574Z,7.64
2022-12-07T15:44:31.765Z,7.68
2022-12-07T15:46:58.569Z,7.68
2022-12-07T15:49:26.901Z,7.66
2022-12-07T15:51:53.645Z,7.66
2022-12-07T15:54:21.682Z,7.65
2022-12-07T15:56:48.540Z,7.66
2022-12-07T15:59:15.739Z,7.64
2022-12-07T16:01:42.745Z,7.65
2022-12-07T16:04:09.905Z,7.61
2022-12-07T16:06:36.693Z,7.58
2022-12-07T16:09:04.065Z,7.56
2022-12-07T16:11:30.892Z,7.56
2022-12-07T16:13:57.984Z,7.57
2022-12-07T16:16:24.785Z,7.53
2022-12-07T16:18:51.804Z,7.51
2022-12-07T16:21:24.708Z,7.47
2022-12-07T16:23:52.289Z,7.45
2022-12-07T16:26:20.479Z,7.49
2022-12-07T16:28:50.304Z,7.46
2022-12-07T16:31:21.121Z,7.44
2022-12-07T16:33:48.662Z,7.43
2022-12-07T16:36:34.018Z,7.38
2022-12-07T16:39:04.943Z,7.43
2022-12-07T16:41:31.765Z,7.38
2022-12-07T16:44:02.869Z,7.39
2022-12-07T16:46:29.664Z,7.42
2022-12-07T16:48:56.753Z,7.41
2022-12-07T16:51:23.529Z,7.36
2022-12-07T16:53:50.809Z,7.37
2022-12-07T16:56:17.640Z,7.34
2022-12-07T16:58:45.277Z,7.35
2022-12-07T17:01:13.500Z,7.32
2022-12-07T17:03:40.940Z,7.33
2022-12-07T17:06:18.021Z,7.34
2022-12-07T17:08:45.227Z,7.32
2022-12-07T17:11:19.498Z,7.33
2022-12-07T17:14:05.116Z,7.26
2022-12-07T17:16:31.910Z,7.27
2022-12-07T17:18:59.323Z,7.23
2022-12-07T17:21:26.202Z,7.20
2022-12-07T17:23:53.302Z,7.21
2022-12-07T17:26:22.291Z,7.21
2022-12-07T17:28:49.345Z,7.19
2022-12-07T17:31:17.415Z,7.17
2022-12-07T17:33:44.568Z,7.20
2022-12-07T17:36:15.199Z,7.20
2022-12-07T17:38:42.395Z,7.14
2022-12-07T17:41:13.032Z,7.16
2022-12-07T17:43:40.192Z,7.09
2022-12-07T17:46:10.762Z,7.12
2022-12-07T17:48:37.865Z,7.12
2022-12-07T17:51:23.067Z,7.10
2022-12-07T17:53:50.944Z,7.14
2022-12-07T17:56:28.636Z,7.14
2022-12-07T17:58:56.191Z,7.10
2022-12-07T18:01:24.221Z,7.13
2022-12-07T18:03:51.939Z,7.15
2022-12-07T18:06:18.735Z,7.15
2022-12-07T18:08:45.756Z,7.14
2022-12-07T18:11:12.612Z,7.11
2022-12-07T18:13:39.739Z,7.10
2022-12-07T18:16:17.931Z,7.10
2022-12-07T18:18:50.748Z,7.12
2022-12-07T18:21:21.254Z,7.12
2022-12-07T18:23:49.778Z,7.13
2022-12-07T18:26:17.413Z,7.09
2022-12-07T18:28:44.545Z,7.10
2022-12-07T18:31:15.628Z,7.06
2022-12-07T18:33:48.358Z,7.08
2022-12-07T18:36:16.102Z,7.06
2022-12-07T18:38:44.264Z,7.03
2022-12-07T18:41:12.302Z,7.01
2022-12-07T18:43:39.439Z,6.97
2022-12-07T18:46:16.826Z,7.01
2022-12-07T18:48:44.893Z,7.00
2022-12-07T18:51:12.605Z,6.98
2022-12-07T18:53:39.682Z,6.98
2022-12-07T18:56:17.098Z,6.99
2022-12-07T18:59:03.343Z,6.96
2022-12-07T19:01:30.913Z,6.98
2022-12-07T19:03:58.664Z,6.97
2022-12-07T19:06:25.561Z,6.99
2022-12-07T19:08:53.633Z,6.94
2022-12-07T19:11:40.170Z,6.90
2022-12-07T19:14:07.260Z,6.88
2022-12-07T19:16:34.082Z,6.89
2022-12-07T19:19:01.160Z,6.91
2022-12-07T19:21:27.912Z,6.90
2022-12-07T19:23:55.273Z,6.91
2022-12-07T19:26:23.264Z,6.92
2022-12-07T19:28:50.591Z,6.91
2022-12-07T19:31:17.508Z,6.92
2022-12-07T19:33:44.632Z,6.90
2022-12-07T19:36:11.427Z,6.90
2022-12-07T19:38:38.525Z,6.92
2022-12-07T19:41:06.580Z,6.96
2022-12-07T19:43:34.451Z,6.94
2022-12-07T19:46:09.361Z,6.96
2022-12-07T19:48:36.484Z,6.93
2022-12-07T19:51:04.757Z,6.94
2022-12-07T19:53:32.885Z,6.91
2022-12-07T19:55:59.684Z,6.91
2022-12-07T19:58:26.818Z,6.90
2022-12-07T20:00:53.661Z,6.91
2022-12-07T20:03:20.813Z,6.89
2022-12-07T20:05:47.724Z,6.86
2022-12-07T20:08:14.831Z,6.86
2022-12-07T20:10:41.660Z,6.88
2022-12-07T20:13:27.839Z,6.85
2022-12-07T20:16:12.140Z,6.88
2022-12-07T20:18:45.404Z,6.89
2022-12-07T20:21:12.225Z,6.87
2022-12-07T20:23:39.355Z,6.92
2022-12-07T20:26:07.391Z,6.88
2022-12-07T20:28:34.557Z,6.86
2022-12-07T20:31:01.380Z,6.86
2022-12-07T20:33:29.251Z,6.89
2022-12-07T20:36:03.207Z,6.88
2022-12-07T20:38:32.251Z,6.88
2022-12-07T20:41:01.075Z,6.86
2022-12-07T20:43:28.692Z,6.85
2022-12-07T20:45:55.753Z,6.87
2022-12-07T20:48:23.004Z,6.85
2022-12-07T20:50:50.121Z,6.85
2022-12-07T20:53:17.224Z,6.86
2022-12-07T20:55:44.211Z,6.86
2022-12-07T20:58:11.337Z,6.87
2022-12-07T21:00:38.157Z,6.86
2022-12-07T21:03:05.307Z,6.84
2022-12-07T21:05:33.121Z,6.83
2022-12-07T21:08:00.264Z,6.86
2022-12-07T21:10:27.060Z,6.83
2022-12-07T21:12:55.796Z,6.82
2022-12-07T21:15:23.045Z,6.85
2022-12-07T21:17:50.124Z,6.81
2022-12-07T21:20:16.849Z,6.85
2022-12-07T21:22:43.891Z,6.85
2022-12-07T21:25:10.820Z,6.86
2022-12-07T21:27:37.887Z,6.84
2022-12-07T21:30:05.212Z,6.81
2022-12-07T21:32:32.340Z,6.77
2022-12-07T21:34:59.167Z,6.78
2022-12-07T21:37:26.230Z,6.78
2022-12-07T21:39:53.027Z,6.76
2022-12-07T21:42:20.107Z,6.81
2022-12-07T21:44:46.870Z,6.78
2022-12-07T21:47:13.919Z,6.81
2022-12-07T21:49:40.663Z,6.74
2022-12-07T21:52:07.862Z,6.78
2022-12-07T21:54:34.658Z,6.77
2022-12-07T21:57:01.774Z,6.80
2022-12-07T21:59:28.738Z,6.80
2022-12-07T22:01:55.889Z,6.81
2022-12-07T22:04:24.322Z,6.80
2022-12-07T22:06:51.698Z,6.81
2022-12-07T22:09:23.615Z,6.76
2022-12-07T22:11:50.742Z,6.79
2022-12-07T22:14:36.957Z,6.79
2022-12-07T22:17:04.027Z,6.77
2022-12-07T22:19:30.792Z,6.78
2022-12-07T22:21:58.125Z,6.69
2022-12-07T22:24:24.865Z,6.74
2022-12-07T22:26:51.943Z,6.75
2022-12-07T22:29:18.719Z,6.73
2022-12-07T22:31:50.533Z,6.76
2022-12-07T22:34:20.103Z,6.76
2022-12-07T22:36:47.233Z,6.76
2022-12-07T22:39:14.045Z,6.74
2022-12-07T22:41:41.108Z,6.78
2022-12-07T22:44:07.975Z,6.73
2022-12-07T22:46:35.112Z,6.75
2022-12-07T22:49:01.929Z,6.77
2022-12-07T22:51:29.995Z,6.74
2022-12-07T22:53:59.644Z,6.75
2022-12-07T22:56:27.182Z,6.74
2022-12-07T22:58:53.937Z,6.74
2022-12-07T23:01:21.501Z,6.72
2022-12-07T23:03:48.322Z,6.75
2022-12-07T23:06:17.035Z,6.74
2022-12-07T23:08:43.987Z,6.75
2022-12-07T23:11:37.340Z,6.76
2022-12-07T23:14:05.420Z,6.77
2022-12-07T23:16:32.697Z,6.73
2022-12-07T23:18:59.510Z,6.76
2022-12-07T23:21:26.547Z,6.75
2022-12-07T23:23:53.286Z,6.74
2022-12-07T23:26:20.365Z,6.75
2022-12-07T23:28:47.239Z,6.78
2022-12-07T23:31:15.628Z,6.76
2022-12-07T23:33:42.510Z,6.77
2022-12-07T23:36:20.145Z,6.76
2022-12-07T23:38:49.927Z,6.71
2022-12-07T23:41:24.237Z,6.72
2022-12-07T23:43:51.065Z,6.71
2022-12-07T23:46:19.725Z,6.72
2022-12-07T23:48:47.164Z,6.72
2022-12-07T23:51:14.389Z,6.73
2022-12-07T23:53:45.861Z,6.70
2022-12-07T23:56:14.164Z,6.72
2022-12-07T23:58:41.005Z,6.75
